Portada
METAR-TAF:

METAR-TAF

Aeroports :

Kulu / Manali, Índia

latitud: 31-52-36N, longitud: 77-09-16E, altitud: 1089 m

Observació

L'informe es va fer fa 2 hores i 9 minuts, a les 04:00 UTC
Vent calma
Temperatura 15°C
Humitat 82%
Pressió 1020 hPa
Visibilitat: 5000 m
boirina

METAR: VIBR 140400Z 00000KT 5000 BR NSC 15/12 Q1020

Hora: 11:39 (06:09 UTC)

Pronòstic

L'informe es va fer fa 1 hora i 9 minuts, a les 05:00 UTC
Pronòstic vàlid del 14 a les 06 UTC al 14 a les 15 UTC
Vent 2 kt amb direcció variable
Visibilitat: 6000 m
Escasses núvols a una alçada de 3000 ft

TAF: VIBR 140500Z 1406/1415 VRB02KT 6000 FEW030

Observacions i pronòstics meteorològics de més de 4000 aeroports (METAR i TAF).

Les estacions disponibles són els punts grocs i vermells al mapa.

Posi el ratolí al punt desitjat per veure el nom de l'estació.

Feu clic per veure les observacions i els pronòstics meteorològics.

Per canviar el mapa: feu clic els botons verds amb una creu de color negre per apropar; al botó verd amb un guió per allunyar la imatge; o en les fletxes verdes per a mapes adjacents.


METAR-TAF: